Time;durP1;ratioP1;P1;durP2;ratioP2;P2;SDS_P1;SDS_P2;PMS_P1;PMS_P2;Temp;Humidity;BMP_temperature;BMP_pressure;BME280_temperature;BME280_humidity;BME280_pressure;Samples;Min_cycle;Max_cycle;Signal;HPM_P1;HPM_P2
2021/05/07 00:02:48;;;;;;;1999.90;999.90;;;;;;;9.05;66.42;99984.44;15437726;28;20054;-62
2021/05/07 00:10:21;;;;;;;1999.90;999.90;;;;;;;9.13;66.57;99966.03;15435383;28;20050;-62
2021/05/07 00:17:53;;;;;;;1999.90;999.90;;;;;;;8.82;65.97;99974.81;15417880;28;20607;-62
2021/05/07 00:25:25;;;;;;;1999.90;999.90;;;;;;;8.48;66.33;99976.69;15419080;28;20243;-61
2021/05/07 00:32:57;;;;;;;1999.90;999.90;;;;;;;8.51;66.10;99969.63;15403393;28;20070;-61
2021/05/07 00:40:32;;;;;;;1999.90;999.90;;;;;;;8.75;65.80;99968.97;15435855;28;20069;-61
2021/05/07 00:48:09;;;;;;;1999.90;999.90;;;;;;;8.77;65.49;99966.69;15401807;28;20447;-62
2021/05/07 00:55:42;;;;;;;1999.90;999.90;;;;;;;8.72;65.91;99955.75;15418108;28;20050;-62
2021/05/07 01:03:19;;;;;;;1999.90;999.90;;;;;;;8.71;66.36;99951.34;15418108;28;20046;-62
2021/05/07 01:10:53;;;;;;;1999.90;999.90;;;;;;;8.55;67.25;99945.59;15417380;28;20439;-63
2021/05/07 01:18:26;;;;;;;1999.90;999.90;;;;;;;8.39;67.71;99956.47;15416498;28;20400;-62
2021/05/07 01:25:59;;;;;;;1999.90;999.90;;;;;;;8.39;67.40;99956.47;15415672;28;20392;-62
2021/05/07 01:33:31;;;;;;;1999.90;999.90;;;;;;;8.49;67.00;99950.50;15416097;28;20062;-62
2021/05/07 01:41:04;;;;;;;1999.90;999.90;;;;;;;8.43;67.02;99946.28;15416224;28;20456;-62
2021/05/07 01:48:43;;;;;;;1999.90;999.90;;;;;;;8.30;67.50;99947.34;15432587;28;20041;-62
2021/05/07 01:56:16;;;;;;;1999.90;999.90;;;;;;;8.28;67.50;99938.53;15415524;28;20097;-61
2021/05/07 02:03:53;;;;;;;1999.90;999.90;;;;;;;8.27;68.26;99939.69;15432126;28;20054;-62
2021/05/07 02:11:36;;;;;;;1999.90;999.90;;;;;;;8.27;68.30;99939.69;15415026;28;20043;-62
2021/05/07 02:19:12;;;;;;;1999.90;999.90;;;;;;;8.28;68.53;99932.97;15431917;28;20167;-63
2021/05/07 02:26:45;;;;;;;1999.90;999.90;;;;;;;8.17;68.69;99932.53;15432857;28;20396;-62
2021/05/07 02:34:16;;;;;;;1999.90;999.90;;;;;;;8.13;68.83;99930.75;15416639;28;20364;-62
2021/05/07 02:41:49;;;;;;;1999.90;999.90;;;;;;;8.18;68.35;99933.34;15442537;28;20105;-61
2021/05/07 02:49:21;;;;;;;1999.90;999.90;;;;;;;8.03;68.67;99921.69;15441731;28;20068;-62
2021/05/07 02:56:53;;;;;;;1999.90;999.90;;;;;;;8.25;67.71;99923.34;15441557;28;20115;-62
2021/05/07 03:04:25;;;;;;;1999.90;999.90;;;;;;;8.07;68.58;99930.16;15424026;28;20082;-62
2021/05/07 03:11:58;;;;;;;1999.90;999.90;;;;;;;8.00;67.97;99943.75;15424910;28;20042;-61
2021/05/07 03:19:29;;;;;;;1999.90;999.90;;;;;;;7.84;68.23;99953.78;15441014;28;20134;-63
2021/05/07 03:27:02;;;;;;;1999.90;999.90;;;;;;;7.88;68.70;99958.34;15440273;28;20484;-62
2021/05/07 03:34:33;;;;;;;1999.90;999.90;;;;;;;7.94;69.06;99954.25;15406370;28;20046;-61
2021/05/07 03:42:06;;;;;;;1999.90;999.90;;;;;;;7.75;69.24;99971.31;15429612;28;20040;-62
2021/05/07 03:49:37;;;;;;;1999.90;999.90;;;;;;;7.87;68.86;99965.03;15497716;28;20697;-61
2021/05/07 03:57:10;;;;;;;1999.90;999.90;;;;;;;8.01;68.30;99979.50;15480861;28;20046;-62
2021/05/07 04:04:43;;;;;;;1999.90;999.90;;;;;;;8.06;68.16;99996.00;15497124;28;20058;-62
2021/05/07 04:12:17;;;;;;;1999.90;999.90;;;;;;;8.33;67.74;99996.69;15479944;28;20051;-61
2021/05/07 04:19:49;;;;;;;1999.90;999.90;;;;;;;8.42;67.45;100022.50;15497100;28;20169;-62
2021/05/07 04:27:21;;;;;;;1999.90;999.90;;;;;;;8.33;67.62;100024.47;15478646;28;20507;-62
2021/05/07 04:34:53;;;;;;;1999.90;999.90;;;;;;;7.69;69.11;100047.59;15495730;28;20066;-62
2021/05/07 04:42:42;;;;;;;1999.90;999.90;;;;;;;7.96;68.58;100057.50;15477998;28;20050;-62
2021/05/07 04:50:14;;;;;;;1999.90;999.90;;;;;;;8.13;67.60;100064.13;15494729;28;20050;-61
2021/05/07 04:57:46;;;;;;;1999.90;999.90;;;;;;;8.56;67.56;100069.56;15494626;28;20447;-62
2021/05/07 05:05:18;;;;;;;1999.90;999.90;;;;;;;8.83;67.99;100084.94;15494591;28;20043;-62
2021/05/07 05:12:50;;;;;;;1999.90;999.90;;;;;;;9.22;66.38;100092.84;15460597;28;20312;-61
2021/05/07 05:20:22;;;;;;;1999.90;999.90;;;;;;;9.35;65.84;100095.69;15494664;28;20445;-62
2021/05/07 05:27:54;;;;;;;1999.90;999.90;;;;;;;9.46;65.22;100088.56;15476750;28;20080;-63
2021/05/07 05:35:26;;;;;;;1999.90;999.90;;;;;;;9.57;63.96;100094.53;15494171;28;20129;-62
2021/05/07 05:42:58;;;;;;;1999.90;999.90;;;;;;;9.77;64.06;100108.44;15493710;28;20073;-61
2021/05/07 05:50:30;;;;;;;1999.90;999.90;;;;;;;9.91;62.56;100112.91;15493187;28;20042;-63
2021/05/07 05:58:03;;;;;;;1999.90;999.90;;;;;;;10.13;61.42;100121.69;15475217;28;20038;-62
2021/05/07 06:05:34;;;;;;;1999.90;999.90;;;;;;;10.01;61.46;100121.66;15492798;28;20056;-63
2021/05/07 06:13:08;;;;;;;1999.90;999.90;;;;;;;9.93;61.67;100133.69;15501018;28;20129;-63
2021/05/07 06:20:39;;;;;;;1999.90;999.90;;;;;;;9.38;62.14;100148.75;15486474;28;20042;-62
2021/05/07 06:28:12;;;;;;;1999.90;999.90;;;;;;;9.42;62.99;100157.25;15485987;28;20035;-64
2021/05/07 06:35:43;;;;;;;1999.90;999.90;;;;;;;9.24;65.38;100162.91;15488455;28;20125;-62
2021/05/07 06:43:16;;;;;;;1999.90;999.90;;;;;;;9.19;66.51;100165.91;15486120;28;20057;-63
2021/05/07 06:50:48;;;;;;;1999.90;999.90;;;;;;;8.37;70.38;100173.66;15475471;28;20067;-58
2021/05/07 06:58:20;;;;;;;1999.90;999.90;;;;;;;8.24;66.79;100190.50;15465025;28;20047;-61
2021/05/07 07:05:52;;;;;;;1999.90;999.90;;;;;;;8.13;67.94;100178.06;15446436;28;20053;-62
2021/05/07 07:13:24;;;;;;;1999.90;999.90;;;;;;;7.88;70.74;100180.56;15439740;28;20113;-61
2021/05/07 07:20:56;;;;;;;1999.90;999.90;;;;;;;7.99;70.68;100181.03;15443855;28;20061;-60
2021/05/07 07:28:29;;;;;;;1999.90;999.90;;;;;;;8.08;70.83;100190.19;15479318;28;20042;-62
2021/05/07 07:36:00;;;;;;;1999.90;999.90;;;;;;;8.49;69.82;100205.50;15480522;28;20042;-61
2021/05/07 07:43:33;;;;;;;1999.90;999.90;;;;;;;8.76;69.31;100232.91;15457394;28;20078;-66
2021/05/07 07:51:05;;;;;;;1999.90;999.90;;;;;;;8.47;70.21;100242.00;15436017;28;20121;-60
2021/05/07 07:58:38;;;;;;;1999.90;999.90;;;;;;;7.75;74.30;100256.53;15436415;28;20070;-63
2021/05/07 08:06:10;;;;;;;1999.90;999.90;;;;;;;7.84;71.39;100282.38;15418305;28;20404;-61
2021/05/07 08:13:43;;;;;;;1999.90;999.90;;;;;;;8.02;72.49;100278.47;15435051;28;20051;-62
2021/05/07 08:21:15;;;;;;;1999.90;999.90;;;;;;;8.46;70.81;100292.38;15416980;28;20125;-64
2021/05/07 08:28:47;;;;;;;1999.90;999.90;;;;;;;8.14;71.05;100313.94;15405400;28;20489;-66
2021/05/07 08:36:19;;;;;;;1999.90;999.90;;;;;;;7.26;71.78;100330.72;15450410;28;20042;-65
2021/05/07 08:43:52;;;;;;;1999.90;999.90;;;;;;;7.05;69.96;100354.59;15457655;28;20133;-62
2021/05/07 08:51:25;;;;;;;1999.90;999.90;;;;;;;6.83;69.00;100381.22;15452139;28;20045;-63
2021/05/07 08:58:57;;;;;;;1999.90;999.90;;;;;;;6.11;69.03;100414.53;15474937;28;20038;-62
2021/05/07 09:06:29;;;;;;;1999.90;999.90;;;;;;;6.03;67.73;100432.69;15414994;28;20047;-63
2021/05/07 09:14:03;;;;;;;1999.90;999.90;;;;;;;5.70;68.30;100443.03;15431388;28;20441;-64
2021/05/07 09:21:41;;;;;;;;;;;;;;;5.57;68.28;100448.59;15414925;28;20046;-64
2021/05/07 09:29:21;;;;;;;1999.90;999.90;;;;;;;5.90;68.93;100455.69;15414389;28;19927;-63
2021/05/07 09:36:53;;;;;;;1999.90;999.90;;;;;;;5.74;69.39;100473.72;15426265;28;20110;-63
2021/05/07 09:44:27;;;;;;;1999.90;999.90;;;;;;;5.97;70.72;100491.31;15477281;28;20070;-62
2021/05/07 09:51:59;;;;;;;1999.90;999.90;;;;;;;6.46;69.77;100512.72;15502262;28;20642;-62
2021/05/07 09:59:32;;;;;;;1999.90;999.90;;;;;;;6.03;71.15;100518.56;15503350;28;20042;-62
2021/05/07 10:07:03;;;;;;;1999.90;999.90;;;;;;;6.36;71.63;100535.94;15389852;28;20052;-62
2021/05/07 10:14:43;;;;;;;1999.90;999.90;;;;;;;6.65;72.51;100531.97;15376967;29;20455;-62
2021/05/07 10:22:16;;;;;;;1999.90;999.90;;;;;;;8.86;69.45;100526.66;15364112;28;20051;-65
2021/05/07 10:29:54;;;;;;;1999.90;999.90;;;;;;;10.64;63.23;100546.38;15425846;28;20047;-59
2021/05/07 10:37:39;;;;;;;1999.90;999.90;;;;;;;11.66;62.54;100535.84;15426125;28;20061;-62
2021/05/07 10:45:13;;;;;;;1999.90;999.90;;;;;;;13.19;57.54;100554.94;15441083;28;20043;-62
2021/05/07 10:52:44;;;;;;;1999.90;999.90;;;;;;;13.06;60.66;100567.31;15442476;28;20050;-61
2021/05/07 11:00:17;;;;;;;1999.90;999.90;;;;;;;12.93;58.48;100574.94;15440956;28;20039;-61
2021/05/07 11:07:52;;;;;;;1999.90;999.90;;;;;;;12.67;57.42;100578.91;15440214;28;20070;-62
2021/05/07 11:15:25;;;;;;;1999.90;999.90;;;;;;;13.29;58.92;100582.47;15439417;28;20049;-61
2021/05/07 11:22:57;;;;;;;1999.90;999.90;;;;;;;15.81;54.54;100590.00;15439071;28;20053;-62
2021/05/07 11:30:29;;;;;;;1999.90;999.90;;;;;;;14.59;52.32;100586.47;15441719;28;20077;-63
2021/05/07 11:38:01;;;;;;;1999.90;999.90;;;;;;;15.10;51.85;100594.88;15486428;28;20577;-59
2021/05/07 11:45:34;;;;;;;1999.90;999.90;;;;;;;16.65;47.23;100587.13;15498245;28;20061;-63
2021/05/07 11:53:06;;;;;;;1999.90;999.90;;;;;;;16.97;44.66;100581.19;15497897;28;20488;-62
2021/05/07 12:00:40;;;;;;;1999.90;999.90;;;;;;;13.80;51.18;100599.56;15499549;28;20042;-62
2021/05/07 12:08:12;;;;;;;1999.90;999.90;;;;;;;11.20;62.56;100621.56;15458274;28;20505;-65
2021/05/07 12:15:48;;;;;;;1999.90;999.90;;;;;;;15.00;59.85;100626.34;15453005;28;20050;-63
2021/05/07 12:23:20;;;;;;;1999.90;999.90;;;;;;;15.10;54.81;100628.59;15491317;28;20057;-63
2021/05/07 12:30:52;;;;;;;1999.90;999.90;;;;;;;12.18;61.67;100644.38;15409178;28;20055;-61
2021/05/07 12:38:27;;;;;;;1999.90;999.90;;;;;;;11.24;62.69;100661.59;15413483;28;20051;-64
2021/05/07 12:46:00;;;;;;;1999.90;999.90;;;;;;;9.73;68.72;100653.59;15435063;28;20101;-61
2021/05/07 12:53:33;;;;;;;1999.90;999.90;;;;;;;12.18;62.10;100642.38;15433005;28;20046;-63
2021/05/07 13:01:07;;;;;;;1999.90;999.90;;;;;;;14.61;55.13;100668.34;15433391;28;20043;-62
2021/05/07 13:08:38;;;;;;;1999.90;999.90;;;;;;;15.80;53.36;100675.59;15431701;28;20047;-59
2021/05/07 13:16:12;;;;;;;1999.90;999.90;;;;;;;20.25;42.18;100680.38;15432684;28;20142;-64
2021/05/07 13:23:44;;;;;;;1999.90;999.90;;;;;;;23.07;39.17;100687.06;15434962;28;20053;-63
2021/05/07 13:31:16;;;;;;;1999.90;999.90;;;;;;;14.62;57.48;100663.56;15388860;28;20145;-63
2021/05/07 13:38:48;;;;;;;1999.90;999.90;;;;;;;13.78;57.30;100672.84;15369784;28;20051;-64
2021/05/07 13:46:20;;;;;;;1999.90;999.90;;;;;;;13.39;57.80;100665.22;15371860;29;20130;-63
2021/05/07 13:53:52;;;;;;;1999.90;999.90;;;;;;;12.64;56.07;100674.78;15370404;29;20121;-63
2021/05/07 14:01:24;;;;;;;1999.90;999.90;;;;;;;13.21;54.26;100684.28;15370025;29;20461;-63
2021/05/07 14:08:56;;;;;;;1999.90;999.90;;;;;;;12.87;57.24;100705.16;15369663;29;20073;-63
2021/05/07 14:16:28;;;;;;;1999.90;999.90;;;;;;;11.72;57.76;100739.34;15358034;28;20044;-63
2021/05/07 14:24:00;;;;;;;1999.90;999.90;;;;;;;10.62;62.45;100771.09;15458800;28;20070;-63
2021/05/07 14:31:34;;;;;;;1999.90;999.90;;;;;;;9.71;64.83;100761.78;15374791;28;20546;-64
2021/05/07 14:39:06;;;;;;;1999.90;999.90;;;;;;;9.61;65.64;100773.25;15383532;29;20054;-63
2021/05/07 14:46:38;;;;;;;1999.90;999.90;;;;;;;10.73;64.93;100796.66;15383392;29;20051;-65
2021/05/07 14:54:14;;;;;;;1999.90;999.90;;;;;;;11.08;64.18;100802.97;15366051;29;20507;-66
2021/05/07 15:01:46;;;;;;;1999.90;999.90;;;;;;;11.54;63.57;100816.88;15384983;29;20516;-65
2021/05/07 15:09:18;;;;;;;1999.90;999.90;;;;;;;11.28;61.79;100805.84;15390386;29;20050;-65
2021/05/07 15:16:50;;;;;;;1999.90;999.90;;;;;;;11.92;59.64;100813.25;15395912;29;20054;-64
2021/05/07 15:24:22;;;;;;;1999.90;999.90;;;;;;;11.83;57.38;100816.09;15391128;29;20047;-62
2021/05/07 15:31:54;;;;;;;1999.90;999.90;;;;;;;12.09;57.19;100826.28;15385810;29;20044;-60
2021/05/07 15:39:26;;;;;;;1999.90;999.90;;;;;;;12.16;57.17;100842.50;15389375;23;20111;-69
2021/05/07 15:47:00;;;;;;;1999.90;999.90;;;;;;;11.14;58.44;100847.13;15361220;28;20091;-72
2021/05/07 15:54:32;;;;;;;1999.90;999.90;;;;;;;11.64;58.66;100882.75;15446627;23;20051;-62
2021/05/07 16:02:04;;;;;;;1999.90;999.90;;;;;;;12.23;59.09;100891.19;15498680;28;20054;-64
2021/05/07 16:09:36;;;;;;;1999.90;999.90;;;;;;;12.25;60.59;100897.25;15480840;28;20096;-62
2021/05/07 16:17:08;;;;;;;1999.90;999.90;;;;;;;11.96;57.96;100897.25;15480308;28;20096;-63
2021/05/07 16:24:40;;;;;;;1999.90;999.90;;;;;;;11.99;58.46;100896.59;15479688;28;20352;-63
2021/05/07 16:32:16;;;;;;;1999.90;999.90;;;;;;;11.41;58.72;100889.78;15479743;28;20133;-61
2021/05/07 16:39:48;;;;;;;1999.90;999.90;;;;;;;11.43;58.21;100923.78;15479255;28;20496;-61
2021/05/07 16:47:20;;;;;;;1999.90;999.90;;;;;;;11.15;58.31;100917.78;15479255;28;20069;-61
2021/05/07 16:54:51;;;;;;;1999.90;999.90;;;;;;;10.94;60.39;100931.59;15496010;28;20074;-62
2021/05/07 17:02:24;;;;;;;1999.90;999.90;;;;;;;10.44;65.29;100971.19;15481021;28;20073;-63
2021/05/07 17:09:56;;;;;;;1999.90;999.90;;;;;;;9.64;66.55;100980.72;15479139;28;20120;-62
2021/05/07 17:17:29;;;;;;;1999.90;999.90;;;;;;;9.77;67.15;100997.34;15513431;28;20042;-62
2021/05/07 17:25:00;;;;;;;1999.90;999.90;;;;;;;9.91;67.43;100996.44;15510056;28;20045;-63
2021/05/07 17:32:33;;;;;;;1999.90;999.90;;;;;;;9.99;67.79;101007.59;15498885;28;20070;-63
2021/05/07 17:40:06;;;;;;;1999.90;999.90;;;;;;;9.43;67.78;101000.78;15477654;28;20046;-61
2021/05/07 17:47:39;;;;;;;1999.90;999.90;;;;;;;9.60;67.39;100999.25;15477508;28;20410;-63
2021/05/07 17:55:12;;;;;;;1999.90;999.90;;;;;;;9.91;65.93;101013.97;15461465;28;20053;-64
2021/05/07 18:02:44;;;;;;;1999.90;999.90;;;;;;;9.66;66.68;101020.22;15476816;28;20046;-63
2021/05/07 18:10:16;;;;;;;1999.90;999.90;;;;;;;9.43;67.22;101016.66;15486347;28;20055;-62
2021/05/07 18:17:48;;;;;;;1999.90;999.90;;;;;;;9.14;67.74;101028.25;15504877;28;20049;-61
2021/05/07 18:25:20;;;;;;;1999.90;999.90;;;;;;;8.93;68.22;101039.03;15462865;28;20051;-62
2021/05/07 18:32:52;;;;;;;1999.90;999.90;;;;;;;8.72;67.53;101054.56;15467084;28;20049;-63
2021/05/07 18:40:24;;;;;;;1999.90;999.90;;;;;;;8.73;68.52;101059.00;15470612;28;20483;-64
2021/05/07 18:47:56;;;;;;;1999.90;999.90;;;;;;;8.75;68.21;101062.28;15487577;28;20077;-60
2021/05/07 18:55:29;;;;;;;1999.90;999.90;;;;;;;8.63;68.23;101074.78;15485709;28;20654;-63
2021/05/07 19:03:01;;;;;;;1999.90;999.90;;;;;;;8.91;67.77;101083.06;15485179;28;20057;-65
2021/05/07 19:10:36;;;;;;;1999.90;999.90;;;;;;;8.79;68.04;101094.75;15502231;28;20464;-63
2021/05/07 19:18:09;;;;;;;1999.90;999.90;;;;;;;8.54;68.97;101109.19;15373503;28;20040;-62
2021/05/07 19:25:40;;;;;;;1999.90;999.90;;;;;;;8.43;69.08;101110.53;15364054;29;20050;-63
2021/05/07 19:33:13;;;;;;;1999.90;999.90;;;;;;;8.40;69.44;101139.78;15379694;29;20058;-64
2021/05/07 19:40:45;;;;;;;1999.90;999.90;;;;;;;8.50;69.49;101139.59;15379994;29;20051;-61
2021/05/07 19:48:18;;;;;;;1999.90;999.90;;;;;;;8.83;69.32;101148.63;15379058;29;20452;-63
2021/05/07 19:55:49;;;;;;;1999.90;999.90;;;;;;;8.74;68.65;101141.31;15377134;28;20098;-63
2021/05/07 20:03:29;;;;;;;1999.90;999.90;;;;;;;8.84;68.60;101152.25;15375749;29;20043;-62
2021/05/07 20:11:00;;;;;;;1999.90;999.90;;;;;;;8.76;68.31;101145.47;15379555;29;20082;-63
2021/05/07 20:18:33;;;;;;;1999.90;999.90;;;;;;;8.90;67.73;101159.34;15378463;29;20130;-65
2021/05/07 20:26:05;;;;;;;1999.90;999.90;;;;;;;8.67;68.49;101159.28;15378278;29;20051;-63
2021/05/07 20:33:37;;;;;;;1999.90;999.90;;;;;;;8.77;67.96;101155.47;15376970;28;20047;-62
2021/05/07 20:41:09;;;;;;;1999.90;999.90;;;;;;;8.67;68.42;101166.78;15343829;29;20085;-63
2021/05/07 20:48:41;;;;;;;1999.90;999.90;;;;;;;8.72;68.54;101165.84;15360020;29;20126;-62
2021/05/07 20:56:13;;;;;;;1999.90;999.90;;;;;;;8.19;69.27;101163.53;15375621;29;20163;-60
2021/05/07 21:03:48;;;;;;;1999.90;999.90;;;;;;;8.18;69.07;101162.69;15376486;29;20050;-62
2021/05/07 21:11:19;;;;;;;1999.90;999.90;;;;;;;7.78;70.15;101175.34;15358214;29;20058;-62
2021/05/07 21:18:52;;;;;;;1999.90;999.90;;;;;;;8.19;68.95;101183.81;15342503;29;20532;-63
2021/05/07 21:26:24;;;;;;;1999.90;999.90;;;;;;;7.96;68.77;101185.59;15357669;29;20186;-64
2021/05/07 21:33:56;;;;;;;1999.90;999.90;;;;;;;7.95;68.96;101177.56;15357902;29;20515;-64
2021/05/07 21:41:28;;;;;;;1999.90;999.90;;;;;;;7.75;69.23;101182.34;15339858;29;20058;-62
2021/05/07 21:49:01;;;;;;;1999.90;999.90;;;;;;;7.64;69.65;101193.91;15355910;29;20047;-63
2021/05/07 21:56:32;;;;;;;1999.90;999.90;;;;;;;7.62;69.36;101188.66;15381172;23;20051;-58
2021/05/07 22:04:05;;;;;;;1999.90;999.90;;;;;;;7.58;69.66;101189.56;15349745;28;20039;-56
2021/05/07 22:11:37;;;;;;;1999.90;999.90;;;;;;;7.53;69.34;101204.38;15333638;29;20040;-60
2021/05/07 22:19:09;;;;;;;1999.90;999.90;;;;;;;7.70;69.46;101204.63;15366861;28;20106;-54
2021/05/07 22:26:41;;;;;;;1999.90;999.90;;;;;;;7.85;69.20;101208.31;15366440;28;20039;-51
2021/05/07 22:34:13;;;;;;;1999.90;999.90;;;;;;;7.74;69.18;101216.81;15348062;28;20062;-55
2021/05/07 22:41:45;;;;;;;1999.90;999.90;;;;;;;7.65;69.43;101226.13;15348111;29;20053;-55
2021/05/07 22:49:17;;;;;;;1999.90;999.90;;;;;;;7.38;69.38;101224.00;15330965;29;20138;-58
2021/05/07 22:56:49;;;;;;;1999.90;999.90;;;;;;;7.27;69.52;101226.09;15357238;28;20501;-60
2021/05/07 23:04:21;;;;;;;1999.90;999.90;;;;;;;7.19;70.09;101226.75;15375325;28;20225;-52
2021/05/07 23:11:53;;;;;;;1999.90;999.90;;;;;;;6.95;70.70;101244.28;15357969;29;20472;-52
2021/05/07 23:19:25;;;;;;;1999.90;999.90;;;;;;;7.05;69.99;101248.03;15357316;29;20043;-56
2021/05/07 23:26:57;;;;;;;1999.90;999.90;;;;;;;6.94;69.85;101255.66;15371174;28;20057;-53
2021/05/07 23:34:29;;;;;;;1999.90;999.90;;;;;;;6.88;70.21;101260.47;15373763;28;20071;-54
2021/05/07 23:42:01;;;;;;;1999.90;999.90;;;;;;;6.82;70.06;101260.81;15373872;29;20126;-55
2021/05/07 23:49:33;;;;;;;1999.90;999.90;;;;;;;6.78;70.19;101257.81;15356469;29;20126;-54
2021/05/07 23:57:05;;;;;;;1999.90;999.90;;;;;;;6.64;70.34;101263.22;15364548;28;20070;-55
